Terminal Aerodrome Forecast
Issued by NWS

Home | Current Version | Previous Version | Text Only | Print | Product List | Glossary On
Versions: 1 2 3 4 5 6 7 8 9 10 11 12 13 14 15 16 17 18 19 20 21 22 23 24 25 26 27 28 29 30
000
FTUS41 KOKX 032100 AAB
TAFHPN
TAF AMD
KHPN 032117Z 0321/0418 16006KT 2SM -SN SCT005 OVC010
      TEMPO 0322/0401 1SM -SN BKN005 OVC010
     FM040100 17006KT 2SM -PLSN OVC005
     FM040200 19006KT 1SM FZRA OVC003
     FM040500 25005KT 1SM -SHRA OVC003 WS020/25050KT
     FM041100 28006KT 1SM -SHRA BR OVC004
      AMD NOT SKED=

USA.gov is the U.S. government's official web portal to all federal, state and local government web resources and services.